Time;durP1;ratioP1;P1;durP2;ratioP2;P2;SDS_P1;SDS_P2;PMS_P1;PMS_P2;Temp;Humidity;BMP_temperature;BMP_pressure;BME280_temperature;BME280_humidity;BME280_pressure;Samples;Min_cycle;Max_cycle;Signal;HPM_P1;HPM_P2
2023/04/09 00:00:09;;;;;;;1.10;1.10;;;;;;;7.10;85.12;96030.41;4361197;32;20198;-59
2023/04/09 00:02:34;;;;;;;1.30;1.30;;;;;;;7.18;84.78;96024.66;4368832;32;20327;-59
2023/04/09 00:05:00;;;;;;;2.20;2.10;;;;;;;7.23;84.54;96026.56;4356919;32;20305;-58
2023/04/09 00:07:26;;;;;;;2.03;1.93;;;;;;;7.06;84.83;96029.34;4364835;32;20200;-59
2023/04/09 00:09:51;;;;;;;1.77;1.67;;;;;;;7.04;85.11;96020.88;4367267;32;20338;-59
2023/04/09 00:12:16;;;;;;;1.73;1.63;;;;;;;7.00;85.24;96016.38;4355174;32;20292;-59
2023/04/09 00:14:42;;;;;;;1.30;1.30;;;;;;;7.02;84.78;96024.81;4349419;32;20197;-58
2023/04/09 00:17:07;;;;;;;2.03;1.93;;;;;;;6.83;85.82;96024.41;4369099;32;20307;-58
2023/04/09 00:19:32;;;;;;;1.90;1.80;;;;;;;6.93;85.45;96026.31;4373924;32;20228;-59
2023/04/09 00:21:57;;;;;;;1.47;1.47;;;;;;;7.04;84.68;96022.72;4366254;32;20279;-58
2023/04/09 00:24:23;;;;;;;2.03;1.93;;;;;;;6.99;84.59;96022.69;4368884;32;20204;-59
2023/04/09 00:26:48;;;;;;;1.30;1.30;;;;;;;7.06;84.15;96015.37;4383595;32;20189;-59
2023/04/09 00:29:13;;;;;;;1.80;1.70;;;;;;;7.01;84.15;96012.69;4386249;32;20188;-59
2023/04/09 00:31:39;;;;;;;1.50;1.40;;;;;;;7.13;83.73;96014.06;4392133;32;20192;-58
2023/04/09 00:34:04;;;;;;;1.57;1.50;;;;;;;6.83;85.49;96004.12;4374925;32;20206;-59
2023/04/09 00:36:30;;;;;;;1.60;1.50;;;;;;;6.78;85.73;96013.81;4378365;32;20201;-59
2023/04/09 00:38:55;;;;;;;1.57;1.57;;;;;;;6.74;85.81;96010.88;4367258;32;20202;-59
2023/04/09 00:41:20;;;;;;;1.93;1.83;;;;;;;6.84;85.40;96005.72;4370250;32;20195;-59
2023/04/09 00:43:46;;;;;;;2.17;1.83;;;;;;;6.98;85.08;96010.53;4379184;32;20196;-58
2023/04/09 00:46:11;;;;;;;1.73;1.63;;;;;;;6.96;83.79;96010.00;4383228;32;20231;-59
2023/04/09 00:48:37;;;;;;;1.73;1.63;;;;;;;7.03;83.57;96007.94;4373134;32;20189;-59
2023/04/09 00:51:02;;;;;;;2.80;1.80;;;;;;;7.06;83.34;96005.59;4379052;32;20231;-58
2023/04/09 00:53:27;;;;;;;1.20;1.20;;;;;;;6.91;84.20;96008.13;4377964;32;20231;-57
2023/04/09 00:55:54;;;;;;;0.60;0.60;;;;;;;6.87;84.41;96004.38;4381685;32;20201;-59
2023/04/09 00:58:19;;;;;;;1.33;1.33;;;;;;;6.86;84.50;96008.88;4370727;32;20211;-59
2023/04/09 01:00:45;;;;;;;0.97;0.97;;;;;;;6.90;84.46;96009.97;4384499;32;20284;-59
2023/04/09 01:03:11;;;;;;;1.67;1.57;;;;;;;6.88;84.67;96011.25;4390308;32;20188;-59
2023/04/09 01:05:54;;;;;;;1.50;1.50;;;;;;;7.13;83.29;96008.00;4384846;32;20222;-59
2023/04/09 01:08:37;;;;;;;1.67;1.57;;;;;;;7.16;83.20;96010.13;4386882;32;20214;-59
2023/04/09 01:11:19;;;;;;;0.90;0.90;;;;;;;7.36;82.55;96007.63;4365735;32;20284;-58
2023/04/09 01:13:54;;;;;;;1.43;1.43;;;;;;;7.13;82.82;96013.28;4374645;32;20303;-59
2023/04/09 01:16:24;;;;;;;1.27;1.27;;;;;;;6.79;85.02;96010.94;4366201;32;20361;-58
2023/04/09 01:18:58;;;;;;;1.90;1.80;;;;;;;6.75;85.60;96007.22;4372931;32;20284;-59
2023/04/09 01:21:30;;;;;;;1.33;1.33;;;;;;;6.99;84.80;96007.66;4387258;32;20386;-59
2023/04/09 01:24:27;;;;;;;1.57;1.47;;;;;;;6.83;85.35;96008.59;4379900;32;20284;-59
2023/04/09 01:27:12;;;;;;;1.43;1.43;;;;;;;6.84;85.59;96004.91;4372237;32;20285;-59
2023/04/09 01:29:46;;;;;;;1.80;1.70;;;;;;;6.93;85.48;96003.38;4379904;32;20276;-59
2023/04/09 01:32:15;;;;;;;2.13;1.80;;;;;;;7.05;84.70;96000.59;4381013;32;20312;-59
2023/04/09 01:34:43;;;;;;;1.97;1.87;;;;;;;6.70;86.11;95999.25;4372793;32;20359;-59
2023/04/09 01:37:11;;;;;;;3.00;2.20;;;;;;;6.88;85.72;96001.50;4384381;32;20338;-59
2023/04/09 01:39:37;;;;;;;1.30;1.30;;;;;;;6.88;85.63;96009.41;4381397;32;20285;-58
2023/04/09 01:42:04;;;;;;;1.97;1.87;;;;;;;6.93;86.23;96003.38;4384710;32;20285;-58
2023/04/09 01:44:31;;;;;;;1.33;1.33;;;;;;;6.68;87.04;96005.81;4381349;32;20303;-59
2023/04/09 01:46:57;;;;;;;2.37;2.17;;;;;;;6.82;87.03;96009.66;4374647;32;20272;-59
2023/04/09 01:49:23;;;;;;;1.93;1.80;;;;;;;6.65;87.78;96006.34;4391186;32;20343;-59
2023/04/09 01:51:49;;;;;;;1.53;1.50;;;;;;;6.68;87.64;96006.63;4377587;32;20276;-59
2023/04/09 01:54:15;;;;;;;2.57;2.37;;;;;;;6.62;88.17;96015.53;4366035;32;20199;-59
2023/04/09 01:56:45;;;;;;;1.57;1.50;;;;;;;6.83;86.78;96012.03;4380418;32;20199;-59
2023/04/09 01:59:11;;;;;;;1.33;1.33;;;;;;;6.80;86.77;96007.25;4386918;32;20319;-59
2023/04/09 02:01:57;;;;;;;2.03;1.93;;;;;;;6.78;86.85;96004.06;4380069;32;20292;-59
2023/04/09 02:04:31;;;;;;;2.23;2.13;;;;;;;6.76;87.06;96005.38;4374758;32;20223;-59
2023/04/09 02:07:05;;;;;;;1.70;1.60;;;;;;;6.84;87.03;96010.97;4379605;32;20292;-59
2023/04/09 02:09:32;;;;;;;1.40;1.40;;;;;;;6.77;87.18;96009.59;4384572;32;20329;-60
2023/04/09 02:12:02;;;;;;;1.27;1.27;;;;;;;6.93;86.77;95999.94;4388194;32;20292;-58
2023/04/09 02:14:30;;;;;;;1.50;1.40;;;;;;;6.85;86.74;96011.78;4366434;32;20294;-57
2023/04/09 02:16:55;;;;;;;2.07;1.97;;;;;;;6.93;86.37;96007.87;4374562;32;20277;-59
2023/04/09 02:19:21;;;;;;;1.93;1.83;;;;;;;6.69;86.69;96010.03;4381481;32;20280;-59
2023/04/09 02:21:46;;;;;;;2.60;2.50;;;;;;;6.78;86.79;96006.72;4381027;32;20201;-59
2023/04/09 02:24:11;;;;;;;2.87;2.67;;;;;;;6.77;86.78;96005.13;4382657;32;20184;-59
2023/04/09 02:26:36;;;;;;;1.60;1.50;;;;;;;6.86;85.98;96008.88;4382129;32;20192;-59
2023/04/09 02:29:02;;;;;;;1.73;1.63;;;;;;;6.81;86.16;96006.22;4384571;32;20188;-58
2023/04/09 02:31:27;;;;;;;2.17;2.07;;;;;;;6.83;85.80;95998.84;4376029;32;20181;-57
2023/04/09 02:33:53;;;;;;;3.37;1.77;;;;;;;6.59;87.10;95994.97;4387889;32;20185;-59
2023/04/09 02:36:18;;;;;;;1.27;1.27;;;;;;;6.55;87.37;96005.19;4390561;32;20240;-59
2023/04/09 02:38:44;;;;;;;1.53;1.50;;;;;;;6.57;87.26;96006.78;4389158;32;20203;-59
2023/04/09 02:41:09;;;;;;;1.17;1.17;;;;;;;6.47;87.50;96002.22;4369894;32;20220;-59
2023/04/09 02:43:35;;;;;;;1.90;1.80;;;;;;;6.48;87.41;96003.81;4378706;32;20198;-59
2023/04/09 02:46:00;;;;;;;2.33;2.23;;;;;;;6.78;86.08;95996.16;4381986;32;20200;-58
2023/04/09 02:48:26;;;;;;;2.70;2.50;;;;;;;6.75;86.37;96015.13;4383919;32;20240;-59
2023/04/09 02:50:51;;;;;;;2.63;2.53;;;;;;;6.67;86.53;96010.28;4390576;32;20203;-58
2023/04/09 02:53:16;;;;;;;1.93;1.93;;;;;;;6.68;86.39;96006.63;4386748;32;20249;-59
2023/04/09 02:55:42;;;;;;;3.03;2.83;;;;;;;6.88;85.72;96001.50;4385045;32;20196;-59
2023/04/09 02:58:07;;;;;;;1.67;1.57;;;;;;;6.83;85.63;95998.84;4369808;32;20247;-59
2023/04/09 03:00:32;;;;;;;2.13;1.93;;;;;;;6.61;86.75;95989.44;4379629;32;20194;-58
2023/04/09 03:02:58;;;;;;;2.87;2.43;;;;;;;6.78;85.99;95996.16;4389274;32;20396;-56
2023/04/09 03:05:23;;;;;;;2.70;2.50;;;;;;;6.81;85.94;96000.94;4391190;32;20233;-59
2023/04/09 03:07:49;;;;;;;1.77;1.67;;;;;;;6.81;85.26;95990.38;4384545;32;20241;-58
2023/04/09 03:10:14;;;;;;;1.63;1.53;;;;;;;6.98;84.88;95992.09;4386780;32;20184;-59
2023/04/09 03:12:40;;;;;;;1.50;1.50;;;;;;;6.89;84.98;95989.09;4386831;32;20200;-59
2023/04/09 03:15:06;;;;;;;1.93;1.87;;;;;;;6.91;85.45;95984.37;4384268;32;20192;-59
2023/04/09 03:17:31;;;;;;;1.60;1.57;;;;;;;7.01;85.49;95987.09;4381949;32;20184;-59
2023/04/09 03:19:56;;;;;;;2.53;2.40;;;;;;;6.83;86.05;95977.75;4379042;32;20208;-59
2023/04/09 03:22:22;;;;;;;2.87;2.67;;;;;;;6.92;86.05;95979.91;4387364;32;20192;-59
2023/04/09 03:24:47;;;;;;;1.87;1.77;;;;;;;6.78;86.38;95980.34;4380306;32;20325;-59
2023/04/09 03:27:12;;;;;;;2.17;2.07;;;;;;;6.54;87.62;95979.88;4375960;32;20195;-58
2023/04/09 03:29:38;;;;;;;2.17;2.07;;;;;;;6.61;87.87;95979.69;4381722;32;20211;-58
2023/04/09 03:32:03;;;;;;;1.47;1.47;;;;;;;6.67;87.49;95985.78;4371762;32;20254;-58
2023/04/09 03:34:28;;;;;;;2.53;2.43;;;;;;;6.83;86.37;95980.38;4381565;32;20228;-58
2023/04/09 03:36:54;;;;;;;2.33;2.23;;;;;;;6.94;86.09;95985.72;4390191;32;20198;-59
2023/04/09 03:39:19;;;;;;;2.27;2.17;;;;;;;6.93;85.97;95998.13;4378445;32;20234;-58
2023/04/09 03:41:45;;;;;;;2.10;2.00;;;;;;;6.90;86.37;95996.78;4377885;32;20211;-58
2023/04/09 03:44:10;;;;;;;2.07;1.93;;;;;;;6.64;86.93;95991.56;4382813;32;20206;-59
2023/04/09 03:46:36;;;;;;;2.60;2.50;;;;;;;6.99;85.79;95999.75;4364757;32;20188;-58
2023/04/09 03:49:01;;;;;;;1.93;1.83;;;;;;;7.01;85.19;96000.28;4384180;32;20188;-59
2023/04/09 03:51:27;;;;;;;1.70;1.70;;;;;;;7.06;85.09;95997.69;4387322;32;20185;-59
2023/04/09 03:53:52;;;;;;;2.13;2.03;;;;;;;7.00;85.50;96005.81;4392138;32;20188;-59
2023/04/09 03:56:17;;;;;;;1.83;1.73;;;;;;;6.95;85.42;96000.50;4388598;32;20323;-59
2023/04/09 03:58:42;;;;;;;1.43;1.43;;;;;;;6.74;86.32;96005.63;4382807;32;20181;-59
2023/04/09 04:01:08;;;;;;;2.23;2.13;;;;;;;6.76;86.62;96008.81;4390562;32;20237;-59
2023/04/09 04:03:33;;;;;;;2.23;1.97;;;;;;;6.71;86.47;96013.22;4380392;32;20180;-59
2023/04/09 04:06:01;;;;;;;1.93;1.83;;;;;;;6.65;86.97;96009.75;4368465;32;20287;-58
2023/04/09 04:08:26;;;;;;;2.73;2.53;;;;;;;6.65;87.13;96012.38;4358833;32;20200;-59
2023/04/09 04:10:51;;;;;;;1.90;1.90;;;;;;;6.63;87.39;96011.88;4372835;32;20300;-59
2023/04/09 04:13:17;;;;;;;2.50;2.40;;;;;;;6.74;87.15;96010.88;4378047;32;23819;-59
2023/04/09 04:15:42;;;;;;;2.07;1.93;;;;;;;6.78;86.66;96013.81;4371467;32;20185;-59
2023/04/09 04:18:10;;;;;;;3.43;2.43;;;;;;;6.71;87.08;96011.38;4389409;32;20188;-59
2023/04/09 04:20:37;;;;;;;1.90;1.80;;;;;;;6.77;86.83;96013.03;4378568;32;20192;-59
2023/04/09 04:23:03;;;;;;;2.23;2.13;;;;;;;6.76;87.01;96019.34;4361670;32;20281;-58
2023/04/09 04:25:30;;;;;;;1.87;1.80;;;;;;;6.75;86.91;96020.41;4384488;32;20276;-58
2023/04/09 04:27:55;;;;;;;2.97;2.77;;;;;;;6.78;86.91;96016.47;4356963;32;20285;-59
2023/04/09 04:30:21;;;;;;;2.27;2.17;;;;;;;6.75;87.27;96023.03;4383389;32;20280;-59
2023/04/09 04:32:47;;;;;;;2.30;2.03;;;;;;;6.80;86.70;96023.06;4391568;32;20192;-59
2023/04/09 04:35:12;;;;;;;3.57;3.30;;;;;;;6.63;87.82;96030.31;4378908;32;20208;-59
2023/04/09 04:37:39;;;;;;;2.57;2.47;;;;;;;6.44;88.68;96021.94;4374896;32;20272;-59
2023/04/09 04:40:05;;;;;;;1.87;1.77;;;;;;;6.25;89.34;96025.97;4380498;32;20199;-58
2023/04/09 04:42:31;;;;;;;2.23;2.13;;;;;;;6.34;89.02;96021.06;4373500;32;20282;-59
2023/04/09 04:44:56;;;;;;;5.70;2.77;;;;;;;6.42;89.21;96024.06;4393677;32;20271;-59
2023/04/09 04:47:21;;;;;;;3.03;2.83;;;;;;;6.53;88.19;96028.38;4371994;32;20197;-59
2023/04/09 04:49:47;;;;;;;2.17;1.97;;;;;;;6.50;88.43;96018.31;4378662;32;20250;-59
2023/04/09 04:52:12;;;;;;;3.13;2.70;;;;;;;6.66;88.21;96011.34;4379553;32;20203;-59
2023/04/09 04:54:38;;;;;;;2.30;2.20;;;;;;;6.38;88.87;96011.62;4372517;32;20229;-58
2023/04/09 04:57:03;;;;;;;2.43;2.23;;;;;;;6.29;89.60;96007.84;4382115;32;20185;-58
2023/04/09 04:59:29;;;;;;;2.20;2.10;;;;;;;6.28;89.99;96000.97;4387239;32;20238;-59
2023/04/09 05:01:54;;;;;;;2.20;2.10;;;;;;;6.57;88.93;95999.69;4388152;32;20180;-59
2023/04/09 05:04:20;;;;;;;2.57;2.47;;;;;;;6.29;89.71;96003.38;4389259;32;20184;-59
2023/04/09 05:06:45;;;;;;;2.57;2.47;;;;;;;6.35;89.37;96009.50;4378929;32;20185;-59
2023/04/09 05:09:10;;;;;;;2.53;2.43;;;;;;;6.36;89.53;96025.06;4371602;32;20196;-59
2023/04/09 05:11:36;;;;;;;1.90;1.90;;;;;;;6.34;89.67;96037.69;4381964;32;20207;-58
2023/04/09 05:14:01;;;;;;;3.17;2.97;;;;;;;6.37;89.70;96034.56;4370485;32;20188;-58
2023/04/09 05:16:26;;;;;;;2.50;2.40;;;;;;;6.52;88.48;96029.41;4374575;32;20185;-59
2023/04/09 05:18:51;;;;;;;2.10;2.00;;;;;;;6.37;88.99;96025.84;4383085;32;20192;-59
2023/04/09 05:21:17;;;;;;;2.13;2.03;;;;;;;6.39;88.87;96035.09;4366441;32;20265;-59
2023/04/09 05:23:42;;;;;;;3.47;3.17;;;;;;;6.39;88.75;96039.56;4389497;32;20196;-59
2023/04/09 05:26:07;;;;;;;2.43;2.33;;;;;;;6.64;87.75;96042.47;4383853;32;20184;-59
2023/04/09 05:28:33;;;;;;;2.47;2.17;;;;;;;6.45;87.63;96043.84;4383672;32;20199;-59
2023/04/09 05:30:58;;;;;;;2.40;2.30;;;;;;;6.26;88.40;96042.59;4389191;32;20408;-58
2023/04/09 05:33:24;;;;;;;2.83;2.73;;;;;;;6.20;88.83;96057.56;4387805;32;20240;-59
2023/04/09 05:35:49;;;;;;;2.30;2.20;;;;;;;6.27;88.75;96052.06;4390786;32;20189;-59
2023/04/09 05:38:14;;;;;;;4.27;2.80;;;;;;;6.19;88.69;96051.50;4381223;32;20222;-59
2023/04/09 05:40:41;;;;;;;2.73;2.27;;;;;;;6.15;88.84;96053.03;4388744;32;20226;-59
2023/04/09 05:43:06;;;;;;;3.03;2.83;;;;;;;6.15;89.02;96049.59;4388897;32;20196;-59
2023/04/09 05:45:31;;;;;;;2.83;2.73;;;;;;;6.14;89.11;96048.81;4371207;32;20284;-58
2023/04/09 05:47:57;;;;;;;2.57;2.47;;;;;;;6.17;89.22;96047.50;4382424;32;20234;-59
2023/04/09 05:50:22;;;;;;;2.10;2.00;;;;;;;6.15;89.18;96049.59;4370382;32;20248;-58
2023/04/09 05:52:47;;;;;;;2.53;2.43;;;;;;;6.26;88.60;96051.28;4380969;32;20298;-59
2023/04/09 05:55:13;;;;;;;3.63;3.43;;;;;;;6.13;89.07;96051.69;4378164;32;20244;-58
2023/04/09 05:57:38;;;;;;;3.57;3.37;;;;;;;6.07;89.59;96036.84;4382919;32;20198;-58
2023/04/09 06:00:04;;;;;;;3.87;3.57;;;;;;;6.08;89.49;96043.72;4382618;32;20233;-58
2023/04/09 06:02:30;;;;;;;2.83;2.73;;;;;;;6.17;89.47;96037.78;4369588;32;20224;-58
2023/04/09 06:04:55;;;;;;;3.20;3.00;;;;;;;6.12;89.64;96040.34;4385522;32;20287;-59
2023/04/09 06:07:20;;;;;;;2.47;2.37;;;;;;;6.12;89.61;96039.56;4370706;32;20195;-58
2023/04/09 06:09:46;;;;;;;3.27;3.17;;;;;;;6.18;89.83;96041.22;4371281;32;20185;-58
2023/04/09 06:12:14;;;;;;;2.77;2.67;;;;;;;6.17;89.55;96034.34;4381895;32;20196;-58
2023/04/09 06:14:40;;;;;;;3.27;3.07;;;;;;;6.13;89.92;96035.88;4368243;32;20242;-58
2023/04/09 06:17:05;;;;;;;2.00;1.90;;;;;;;6.22;89.46;96052.84;4371835;32;20355;-58
2023/04/09 06:19:30;;;;;;;1.87;1.87;;;;;;;6.32;88.78;96049.50;4374391;32;20202;-58
2023/04/09 06:21:56;;;;;;;3.03;2.93;;;;;;;6.48;88.27;96059.94;4390188;32;20184;-58
2023/04/09 06:24:21;;;;;;;2.80;2.60;;;;;;;6.46;87.88;96058.59;4383148;32;20243;-58
2023/04/09 06:26:47;;;;;;;2.77;2.60;;;;;;;6.41;88.39;96063.84;4377962;32;20200;-58
2023/04/09 06:29:12;;;;;;;2.83;2.63;;;;;;;6.71;87.30;96058.84;4378917;32;20189;-58
2023/04/09 06:31:37;;;;;;;2.47;2.37;;;;;;;6.69;86.56;96063.56;4388063;32;20188;-58
2023/04/09 06:34:03;;;;;;;2.23;2.13;;;;;;;6.74;86.10;96063.62;4367159;32;20192;-58
2023/04/09 06:36:29;;;;;;;2.97;2.87;;;;;;;6.71;86.38;96069.38;4377967;32;20191;-57
2023/04/09 06:38:55;;;;;;;3.37;3.17;;;;;;;6.68;86.56;96069.88;4372333;32;20188;-58
2023/04/09 06:41:21;;;;;;;5.47;3.03;;;;;;;6.82;86.05;96072.94;4390623;32;20302;-60
2023/04/09 06:43:46;;;;;;;2.70;2.60;;;;;;;6.84;85.17;96074.28;4380855;32;20193;-60
2023/04/09 06:46:15;;;;;;;2.93;2.80;;;;;;;6.80;85.19;96070.53;4383077;32;20333;-60
2023/04/09 06:48:43;;;;;;;3.00;2.80;;;;;;;7.00;84.75;96069.13;4385511;32;20207;-60
2023/04/09 06:51:09;;;;;;;2.53;2.43;;;;;;;7.11;83.75;96068.13;4381092;32;20268;-60
2023/04/09 06:53:34;;;;;;;1.90;1.90;;;;;;;7.30;82.70;96071.97;4383012;32;20299;-60
2023/04/09 06:56:00;;;;;;;2.50;2.40;;;;;;;7.28;82.48;96068.78;4383115;32;20224;-60
2023/04/09 06:58:25;;;;;;;2.47;2.27;;;;;;;7.27;81.93;96072.50;4394058;32;20267;-61
2023/04/09 07:00:50;;;;;;;3.90;3.40;;;;;;;7.34;81.02;96067.78;4387040;32;20192;-59
2023/04/09 07:03:16;;;;;;;3.50;3.30;;;;;;;7.45;79.34;96068.66;4369867;32;20196;-59
2023/04/09 07:05:41;;;;;;;3.50;2.53;;;;;;;7.26;80.06;96070.91;4378583;32;20227;-59
2023/04/09 07:08:07;;;;;;;2.70;2.60;;;;;;;7.61;79.03;96072.16;4363927;32;20193;-59
2023/04/09 07:10:32;;;;;;;3.17;2.97;;;;;;;7.74;78.02;96079.62;4375878;32;20198;-60
2023/04/09 07:12:57;;;;;;;2.50;2.40;;;;;;;7.71;78.45;96080.94;4383767;32;20188;-60
2023/04/09 07:15:23;;;;;;;1.77;1.77;;;;;;;7.49;77.89;96081.06;4376041;32;20192;-59
2023/04/09 07:17:48;;;;;;;2.63;2.37;;;;;;;7.63;76.37;96078.00;4378081;32;20284;-59
2023/04/09 07:20:14;;;;;;;2.63;2.53;;;;;;;7.57;76.48;96085.88;4385281;32;20218;-59
2023/04/09 07:22:40;;;;;;;1.90;1.80;;;;;;;7.76;76.79;96080.16;4383143;32;20228;-59
2023/04/09 07:25:06;;;;;;;2.40;2.30;;;;;;;7.59;75.83;96085.63;4389045;32;20203;-59
2023/04/09 07:27:32;;;;;;;2.23;2.13;;;;;;;7.81;75.70;96083.66;4386911;32;20287;-59
2023/04/09 07:29:58;;;;;;;2.13;2.03;;;;;;;7.71;74.66;96080.12;4385895;32;20188;-59
2023/04/09 07:32:25;;;;;;;1.97;1.87;;;;;;;7.97;73.39;96073.94;4385338;32;20185;-59
2023/04/09 07:34:51;;;;;;;1.47;1.47;;;;;;;7.96;71.97;96080.28;4377619;32;20298;-59
2023/04/09 07:37:17;;;;;;;1.77;1.77;;;;;;;7.78;72.22;96084.16;4384611;32;20284;-53
2023/04/09 07:39:42;;;;;;;3.70;2.77;;;;;;;7.93;74.12;96086.06;4383619;32;20227;-53
2023/04/09 07:42:07;;;;;;;2.43;2.33;;;;;;;8.00;73.73;96088.47;4382712;32;20192;-53
2023/04/09 07:44:33;;;;;;;1.57;1.50;;;;;;;8.02;73.92;96084.53;4389126;32;20191;-54
2023/04/09 07:47:00;;;;;;;2.17;1.97;;;;;;;8.18;69.65;96083.53;4381674;32;20210;-50
2023/04/09 07:49:25;;;;;;;1.83;1.73;;;;;;;7.99;69.47;96079.75;4389720;32;20303;-52
2023/04/09 07:51:51;;;;;;;2.60;2.40;;;;;;;8.08;69.82;96078.22;4385853;32;20280;-52
2023/04/09 07:54:16;;;;;;;2.30;2.20;;;;;;;8.18;71.29;96072.97;4378685;32;20224;-53
2023/04/09 07:56:41;;;;;;;2.00;1.90;;;;;;;8.19;70.92;96079.84;4365357;32;20197;-54
2023/04/09 07:59:07;;;;;;;2.27;2.17;;;;;;;8.28;70.07;96077.50;4391485;32;20192;-49
2023/04/09 08:01:32;;;;;;;1.60;1.50;;;;;;;8.12;71.08;96079.28;4364261;32;20197;-53
2023/04/09 08:03:57;;;;;;;1.87;1.77;;;;;;;8.19;71.70;96085.13;4383978;32;20198;-51
2023/04/09 08:06:22;;;;;;;1.47;1.47;;;;;;;8.24;71.16;96079.06;4378439;32;20193;-53
2023/04/09 08:08:48;;;;;;;2.70;2.60;;;;;;;8.37;71.19;96081.25;4386385;32;20259;-53
2023/04/09 08:11:13;;;;;;;3.10;2.97;;;;;;;8.36;71.56;96084.16;4372843;32;20257;-55
2023/04/09 08:13:39;;;;;;;1.83;1.83;;;;;;;8.44;71.66;96075.72;4375375;32;20192;-59
2023/04/09 08:16:07;;;;;;;2.33;2.23;;;;;;;8.51;71.78;96081.56;4384918;32;20204;-54
2023/04/09 08:18:33;;;;;;;2.43;2.33;;;;;;;8.53;71.92;96082.87;4383724;32;20239;-54
2023/04/09 08:21:02;;;;;;;2.03;1.93;;;;;;;8.32;71.32;96094.44;4374959;32;20303;-56
2023/04/09 08:23:28;;;;;;;2.33;2.23;;;;;;;8.25;70.84;96092.03;4376018;32;20185;-60
2023/04/09 08:25:54;;;;;;;3.47;3.27;;;;;;;8.31;71.49;96094.69;4388422;32;20289;-61
2023/04/09 08:28:19;;;;;;;2.63;2.43;;;;;;;8.28;71.48;96086.22;4387269;32;20247;-60
2023/04/09 08:30:46;;;;;;;2.73;2.60;;;;;;;8.37;71.46;96091.03;4384056;32;20203;-61
2023/04/09 08:33:12;;;;;;;2.17;2.07;;;;;;;8.40;71.52;96095.78;4387403;32;20184;-60
2023/04/09 08:35:39;;;;;;;1.73;1.73;;;;;;;8.56;69.64;96092.94;4366948;32;20280;-60
2023/04/09 08:38:05;;;;;;;2.57;2.47;;;;;;;8.66;69.28;96094.03;4385245;32;20284;-60
2023/04/09 08:40:34;;;;;;;2.17;2.07;;;;;;;8.71;68.39;96092.19;4386891;32;20373;-61
2023/04/09 08:43:03;;;;;;;2.27;2.17;;;;;;;8.77;68.23;96085.81;4382170;32;20184;-60
2023/04/09 08:45:28;;;;;;;2.07;1.97;;;;;;;8.82;68.39;96088.47;4386068;32;20336;-60
2023/04/09 08:47:53;;;;;;;1.23;1.23;;;;;;;8.85;68.08;96085.31;4368634;32;20281;-60
2023/04/09 08:50:19;;;;;;;1.60;1.50;;;;;;;8.94;69.51;96081.06;4389962;32;20184;-60
2023/04/09 08:52:46;;;;;;;1.60;1.60;;;;;;;9.00;69.03;96087.19;4377660;32;20207;-61
2023/04/09 08:55:12;;;;;;;1.60;1.60;;;;;;;8.83;68.74;96095.38;4379694;32;20228;-61
2023/04/09 08:57:38;;;;;;;2.10;2.00;;;;;;;8.87;68.07;96093.78;4381090;32;20287;-60
2023/04/09 09:00:03;;;;;;;2.20;2.10;;;;;;;9.02;66.25;96097.50;4378681;32;20200;-60
2023/04/09 09:02:30;;;;;;;2.17;2.07;;;;;;;9.17;65.35;96094.84;4389282;32;20202;-60
2023/04/09 09:04:59;;;;;;;2.50;2.33;;;;;;;9.09;65.64;96092.75;4379742;32;20192;-61
2023/04/09 09:07:27;;;;;;;2.43;2.33;;;;;;;9.09;65.95;96104.13;4379431;32;20316;-60
2023/04/09 09:09:57;;;;;;;2.93;2.73;;;;;;;8.98;66.38;96104.38;4381544;32;20319;-61
2023/04/09 09:12:50;;;;;;;3.77;3.57;;;;;;;9.05;66.82;96099.63;4386717;32;20287;-60
2023/04/09 09:15:27;;;;;;;2.10;2.00;;;;;;;9.05;65.52;96104.91;4379347;32;20280;-60
2023/04/09 09:17:55;;;;;;;2.97;2.83;;;;;;;9.18;66.11;96099.09;4382471;32;20299;-61
2023/04/09 09:20:21;;;;;;;3.33;3.10;;;;;;;9.25;66.94;96099.63;4380175;32;20285;-60
2023/04/09 09:22:53;;;;;;;2.60;2.40;;;;;;;9.37;64.88;96102.78;4381236;32;20284;-60
2023/04/09 09:25:24;;;;;;;2.33;2.23;;;;;;;9.15;64.56;96105.69;4385027;32;20429;-60
2023/04/09 09:27:51;;;;;;;2.40;2.30;;;;;;;9.18;64.29;96101.75;4368244;32;20288;-60
2023/04/09 09:30:24;;;;;;;2.53;2.33;;;;;;;9.17;64.07;96100.16;4378234;32;20280;-60
2023/04/09 09:33:03;;;;;;;3.73;3.53;;;;;;;9.36;63.94;96114.44;4382408;32;20331;-60
2023/04/09 09:35:28;;;;;;;3.07;2.97;;;;;;;9.20;64.38;96104.91;4372317;32;20287;-59
2023/04/09 09:38:03;;;;;;;3.07;2.87;;;;;;;9.33;63.29;96104.41;4394586;32;20280;-60
2023/04/09 09:40:28;;;;;;;2.77;2.67;;;;;;;9.36;62.88;96098.56;4382298;32;20188;-60
2023/04/09 09:42:57;;;;;;;2.63;2.53;;;;;;;9.38;62.49;96091.13;4383792;32;20285;-60
2023/04/09 09:45:24;;;;;;;2.63;2.53;;;;;;;9.46;62.38;96098.56;4384416;32;20207;-60
2023/04/09 09:47:50;;;;;;;2.83;2.63;;;;;;;9.41;63.02;96095.91;4379228;32;20303;-61
2023/04/09 09:50:16;;;;;;;2.50;2.40;;;;;;;9.56;63.71;96095.12;4367062;32;20280;-60
2023/04/09 09:52:44;;;;;;;3.43;3.23;;;;;;;9.59;64.38;96097.22;4381671;32;20283;-61
2023/04/09 09:55:13;;;;;;;4.23;3.87;;;;;;;9.67;62.92;96087.94;4374334;32;20696;-60
2023/04/09 09:57:42;;;;;;;2.53;2.43;;;;;;;9.44;63.78;96105.19;4375932;32;20318;-60
2023/04/09 10:00:11;;;;;;;3.00;2.80;;;;;;;9.71;63.27;96103.03;4367313;32;20276;-60
2023/04/09 10:02:45;;;;;;;2.70;2.53;;;;;;;9.58;62.35;96103.56;4387820;32;20285;-60
2023/04/09 10:05:10;;;;;;;2.83;2.53;;;;;;;9.58;62.67;96098.25;4375225;32;20318;-60
2023/04/09 10:07:37;;;;;;;3.10;2.73;;;;;;;9.76;62.42;96103.03;4389188;32;20303;-60
2023/04/09 10:10:04;;;;;;;3.00;2.90;;;;;;;9.63;62.64;96093.75;4372340;32;20181;-60
2023/04/09 10:12:31;;;;;;;3.10;2.90;;;;;;;9.65;63.01;96096.94;4387227;32;20290;-59
2023/04/09 10:15:03;;;;;;;3.00;2.80;;;;;;;9.71;63.86;96100.38;4376650;32;20306;-60
2023/04/09 10:17:28;;;;;;;2.07;1.97;;;;;;;9.86;63.15;96102.19;4369123;32;20295;-60
2023/04/09 10:20:11;;;;;;;2.73;2.63;;;;;;;9.87;61.95;96093.19;4385922;32;20268;-60
2023/04/09 10:22:38;;;;;;;2.63;2.53;;;;;;;10.07;62.65;96094.97;4371413;32;20206;-60
2023/04/09 10:25:05;;;;;;;2.43;2.30;;;;;;;10.02;62.57;96095.78;4380316;32;20271;-60
2023/04/09 10:27:31;;;;;;;3.50;3.30;;;;;;;9.99;61.92;96098.97;4377259;32;20240;-59
2023/04/09 10:29:58;;;;;;;3.23;3.03;;;;;;;9.88;62.05;96105.38;4388716;32;20180;-60
2023/04/09 10:32:26;;;;;;;3.87;3.53;;;;;;;9.82;63.30;96096.63;4374456;32;20184;-60
2023/04/09 10:34:56;;;;;;;3.50;3.20;;;;;;;9.82;63.70;96103.78;4382196;32;20276;-60
2023/04/09 10:37:24;;;;;;;2.73;2.63;;;;;;;9.71;62.84;96096.94;4373606;32;20198;-60
2023/04/09 10:39:51;;;;;;;3.10;3.00;;;;;;;9.70;63.05;96092.69;4380417;32;20368;-60
2023/04/09 10:42:23;;;;;;;4.43;3.57;;;;;;;9.74;63.49;96093.75;4371419;32;20316;-60
2023/04/09 10:45:05;;;;;;;4.43;3.63;;;;;;;9.96;62.26;96097.69;4388342;32;20387;-60
2023/04/09 10:47:35;;;;;;;3.40;3.20;;;;;;;9.89;61.96;96101.66;4381435;32;20329;-60
2023/04/09 10:50:23;;;;;;;4.97;3.27;;;;;;;9.91;62.04;96099.53;4387375;32;20302;-60
2023/04/09 10:52:56;;;;;;;2.40;2.30;;;;;;;9.97;62.22;96098.47;4380384;32;20343;-60
2023/04/09 10:55:35;;;;;;;3.60;3.40;;;;;;;9.83;62.42;96097.44;4380831;32;20275;-60
2023/04/09 10:58:00;;;;;;;3.50;3.30;;;;;;;9.78;62.83;96092.94;4387692;32;20188;-59
2023/04/09 11:00:25;;;;;;;3.10;3.00;;;;;;;9.78;62.67;96086.84;4383493;32;20284;-60
2023/04/09 11:03:16;;;;;;;6.80;3.23;;;;;;;9.84;63.36;96104.31;4380975;32;20195;-60
2023/04/09 11:05:43;;;;;;;5.40;3.27;;;;;;;9.82;63.59;96093.97;4377552;32;20239;-60
2023/04/09 11:08:11;;;;;;;3.07;2.97;;;;;;;9.65;64.13;96096.16;4380112;32;20306;-60
2023/04/09 11:10:39;;;;;;;3.30;3.10;;;;;;;9.70;65.13;96092.69;4374556;32;20284;-60
2023/04/09 11:13:05;;;;;;;3.63;3.33;;;;;;;9.71;64.51;96094.28;4384903;32;20335;-60
2023/04/09 11:15:33;;;;;;;2.90;2.73;;;;;;;9.65;64.55;96086.34;4372509;32;20315;-59
2023/04/09 11:17:59;;;;;;;3.03;2.93;;;;;;;9.74;63.38;96094.56;4385713;32;20247;-59
2023/04/09 11:20:25;;;;;;;3.57;3.23;;;;;;;9.67;64.24;96082.63;4391974;32;20313;-60
2023/04/09 11:22:52;;;;;;;3.90;3.70;;;;;;;9.83;63.53;96082.31;4384062;32;20189;-60
2023/04/09 11:25:25;;;;;;;3.77;3.50;;;;;;;9.98;62.53;96082.28;4380793;32;20202;-60
2023/04/09 11:27:51;;;;;;;3.20;3.00;;;;;;;9.99;62.35;96080.41;4373186;32;20183;-60
2023/04/09 11:30:17;;;;;;;2.53;2.43;;;;;;;10.04;61.70;96079.59;4382850;32;20287;-60
2023/04/09 11:32:43;;;;;;;3.73;3.43;;;;;;;10.00;61.71;96090.75;4368435;32;20289;-60
2023/04/09 11:35:19;;;;;;;3.27;3.07;;;;;;;9.92;60.15;96086.03;4379069;32;20180;-60
2023/04/09 11:37:45;;;;;;;4.40;4.07;;;;;;;9.91;61.08;96083.63;4376650;32;20281;-60
2023/04/09 11:40:18;;;;;;;3.03;2.83;;;;;;;9.79;62.48;96081.28;4365146;32;20273;-60